Time;durP1;ratioP1;P1;durP2;ratioP2;P2;SDS_P1;SDS_P2;PMS_P1;PMS_P2;Temp;Humidity;BMP_temperature;BMP_pressure;BME280_temperature;BME280_humidity;BME280_pressure;Samples;Min_cycle;Max_cycle;Signal;HPM_P1;HPM_P2
2022/01/09 00:01:26;;;;;;;3.43;1.90;;;;;;;;;;4981341;28;20473;-80
2022/01/09 00:03:52;;;;;;;3.37;1.70;;;;;;;;;;4983130;28;20469;-80
2022/01/09 00:06:18;;;;;;;2.27;2.00;;;;;;;;;;4980961;28;20418;-80
2022/01/09 00:08:44;;;;;;;3.47;2.03;;;;;;;;;;4982466;28;20506;-80
2022/01/09 00:11:11;;;;;;;6.47;2.40;;;;;;;;;;4983201;28;20464;-80
2022/01/09 00:13:37;;;;;;;3.60;1.80;;;;;;;;;;4982634;28;20452;-80
2022/01/09 00:16:03;;;;;;;2.93;2.20;;;;;;;;;;4983517;28;20886;-80
2022/01/09 00:18:29;;;;;;;2.73;1.97;;;;;;;;;;4982467;28;20464;-79
2022/01/09 00:20:56;;;;;;;3.00;2.13;;;;;;;;;;4982715;28;20565;-79
2022/01/09 00:23:22;;;;;;;5.27;2.57;;;;;;;;;;4981763;28;20421;-80
2022/01/09 00:25:48;;;;;;;6.73;2.50;;;;;;;;;;4982329;28;20445;-80
2022/01/09 00:28:14;;;;;;;10.40;2.67;;;;;;;;;;4982029;28;20452;-80
2022/01/09 00:30:40;;;;;;;3.70;2.20;;;;;;;;;;4981567;28;20416;-80
2022/01/09 00:33:06;;;;;;;2.60;1.93;;;;;;;;;;4980554;28;20520;-80
2022/01/09 00:35:32;;;;;;;2.23;1.53;;;;;;;;;;4982627;28;20775;-80
2022/01/09 00:37:58;;;;;;;5.13;2.33;;;;;;;;;;4981931;28;20480;-80
2022/01/09 00:40:24;;;;;;;3.30;1.77;;;;;;;;;;4982246;28;20871;-80
2022/01/09 00:42:51;;;;;;;2.37;1.67;;;;;;;;;;4982359;28;20429;-80
2022/01/09 00:45:17;;;;;;;2.30;1.80;;;;;;;;;;4981705;28;20426;-80
2022/01/09 00:47:43;;;;;;;3.83;1.77;;;;;;;;;;4981155;28;20410;-80
2022/01/09 00:50:10;;;;;;;3.47;2.17;;;;;;;;;;4980323;28;20468;-80
2022/01/09 00:52:36;;;;;;;3.30;1.77;;;;;;;;;;4981603;28;20433;-79
2022/01/09 00:55:03;;;;;;;2.60;1.77;;;;;;;;;;4981263;28;20410;-80
2022/01/09 00:57:29;;;;;;;2.90;1.83;;;;;;;;;;4981213;28;20410;-80
2022/01/09 00:59:55;;;;;;;3.57;1.90;;;;;;;;;;4978823;28;20453;-80
2022/01/09 01:02:21;;;;;;;3.93;1.83;;;;;;;;;;4980655;28;20481;-80
2022/01/09 01:04:49;;;;;;;2.33;1.80;;;;;;;;;;4980587;28;20429;-80
2022/01/09 01:07:15;;;;;;;1.93;1.50;;;;;;;;;;4980474;28;20486;-79
2022/01/09 01:09:41;;;;;;;3.10;1.83;;;;;;;;;;4979744;28;20936;-79
2022/01/09 01:12:08;;;;;;;1.90;1.37;;;;;;;;;;4980668;28;20440;-80
2022/01/09 01:14:34;;;;;;;2.90;1.63;;;;;;;;;;4981046;28;20405;-79
2022/01/09 01:17:00;;;;;;;2.37;1.80;;;;;;;;;;4981144;28;20437;-80
2022/01/09 01:19:26;;;;;;;2.30;1.80;;;;;;;;;;4981038;28;20409;-79
2022/01/09 01:21:52;;;;;;;1.83;1.60;;;;;;;;;;4979810;28;20512;-79
2022/01/09 01:24:20;;;;;;;3.40;1.90;;;;;;;;;;4980563;28;20406;-79
2022/01/09 01:26:46;;;;;;;3.10;1.97;;;;;;;;;;4979534;28;20913;-79
2022/01/09 01:29:13;;;;;;;2.73;1.80;;;;;;;;;;4981225;28;20410;-79
2022/01/09 01:31:39;;;;;;;3.53;1.73;;;;;;;;;;4981046;28;20429;-80
2022/01/09 01:34:05;;;;;;;2.20;1.50;;;;;;;;;;4978330;28;20406;-80
2022/01/09 01:36:31;;;;;;;2.53;1.90;;;;;;;;;;4979459;28;20410;-80
2022/01/09 01:38:57;;;;;;;4.60;2.30;;;;;;;;;;4979359;28;20536;-80
2022/01/09 01:41:23;;;;;;;2.30;1.70;;;;;;;;;;4980167;28;20499;-80
2022/01/09 01:43:49;;;;;;;4.30;1.90;;;;;;;;;;4979391;28;20429;-80
2022/01/09 01:46:15;;;;;;;2.30;1.70;;;;;;;;;;4980672;28;20402;-80
2022/01/09 01:48:41;;;;;;;4.53;1.80;;;;;;;;;;4979818;28;20397;-80
2022/01/09 01:51:09;;;;;;;2.70;1.73;;;;;;;;;;4979295;28;20474;-80
2022/01/09 01:53:35;;;;;;;3.40;1.80;;;;;;;;;;4983855;28;20406;-80
2022/01/09 01:56:01;;;;;;;2.00;1.67;;;;;;;;;;4984173;28;20409;-80
2022/01/09 01:58:31;;;;;;;2.70;1.60;;;;;;;;;;4980155;28;20417;-80
2022/01/09 02:00:57;;;;;;;3.00;1.60;;;;;;;;;;4981518;28;20460;-80
2022/01/09 02:03:23;;;;;;;2.40;1.70;;;;;;;;;;4979931;28;20914;-80
2022/01/09 02:05:49;;;;;;;3.30;1.57;;;;;;;;;;4980033;28;20441;-80
2022/01/09 02:08:15;;;;;;;3.63;3.27;;;;;;;;;;4981652;28;20406;-78
2022/01/09 02:10:43;;;;;;;1.60;1.30;;;;;;;;;;4980112;28;20436;-79
2022/01/09 02:13:09;;;;;;;2.10;1.57;;;;;;;;;;4978216;28;20451;-78
2022/01/09 02:15:35;;;;;;;2.50;1.50;;;;;;;;;;4977966;28;20897;-78
2022/01/09 02:18:02;;;;;;;2.10;1.30;;;;;;;;;;4978282;28;20454;-79
2022/01/09 02:20:28;;;;;;;4.97;1.70;;;;;;;;;;4980526;28;20512;-79
2022/01/09 02:22:55;;;;;;;2.40;1.50;;;;;;;;;;4980582;28;20422;-81
2022/01/09 02:25:21;;;;;;;2.67;1.50;;;;;;;;;;4980372;28;20417;-81
2022/01/09 02:27:47;;;;;;;1.97;1.20;;;;;;;;;;4980655;28;20411;-81
2022/01/09 02:30:13;;;;;;;2.23;1.40;;;;;;;;;;4980297;28;20406;-79
2022/01/09 02:32:39;;;;;;;1.70;1.10;;;;;;;;;;4978872;28;20527;-79
2022/01/09 02:35:05;;;;;;;3.93;1.40;;;;;;;;;;4982649;28;20413;-78
2022/01/09 02:37:31;;;;;;;2.27;1.50;;;;;;;;;;4980271;28;20808;-79
2022/01/09 02:39:57;;;;;;;1.90;1.27;;;;;;;;;;4979449;28;20424;-79
2022/01/09 02:42:26;;;;;;;2.27;1.40;;;;;;;;;;4978640;28;20445;-80
2022/01/09 02:44:54;;;;;;;2.30;1.20;;;;;;;;;;4979949;28;20972;-79
2022/01/09 02:47:21;;;;;;;2.73;1.70;;;;;;;;;;4980110;28;20405;-80
2022/01/09 02:49:50;;;;;;;1.83;1.50;;;;;;;;;;4979820;28;20402;-80
2022/01/09 02:52:33;;;;;;;3.37;1.57;;;;;;;;;;4978650;28;20456;-80
2022/01/09 02:57:34;;;;;;;3.17;1.30;;;;;;;;;;4960615;29;20395;-79
2022/01/09 03:00:01;;;;;;;3.17;1.67;;;;;;;;;;4960139;28;20485;-80
2022/01/09 03:02:27;;;;;;;2.47;1.67;;;;;;;;;;4960084;29;20450;-79
2022/01/09 03:04:53;;;;;;;2.23;1.40;;;;;;;;;;4960381;29;20414;-79
2022/01/09 03:07:19;;;;;;;2.40;1.43;;;;;;;;;;4959056;29;20422;-79
2022/01/09 03:09:45;;;;;;;3.70;1.40;;;;;;;;;;4963321;29;20406;-79
2022/01/09 03:12:12;;;;;;;1.90;1.30;;;;;;;;;;4963806;29;20426;-80
2022/01/09 03:14:38;;;;;;;2.00;1.27;;;;;;;;;;4959363;29;20410;-80
2022/01/09 03:17:04;;;;;;;1.37;1.10;;;;;;;;;;4961582;29;20414;-80
2022/01/09 03:19:30;;;;;;;1.73;1.17;;;;;;;;;;4960971;29;20438;-80
2022/01/09 03:21:56;;;;;;;2.50;1.50;;;;;;;;;;4961362;28;20458;-79
2022/01/09 03:24:22;;;;;;;1.60;1.10;;;;;;;;;;4975168;29;20425;-79
2022/01/09 03:26:48;;;;;;;1.40;1.00;;;;;;;;;;4965941;29;20457;-80
2022/01/09 03:29:14;;;;;;;3.93;1.30;;;;;;;;;;4962374;29;20842;-80
2022/01/09 03:31:40;;;;;;;1.87;1.00;;;;;;;;;;4963689;29;20439;-80
2022/01/09 03:34:06;;;;;;;2.00;1.20;;;;;;;;;;4963628;29;20425;-80
2022/01/09 03:36:32;;;;;;;1.40;1.00;;;;;;;;;;4962395;29;20456;-79
2022/01/09 03:38:58;;;;;;;1.50;1.00;;;;;;;;;;4963298;29;20418;-79
2022/01/09 03:41:24;;;;;;;1.80;0.90;;;;;;;;;;4963359;29;20474;-80
2022/01/09 03:43:50;;;;;;;1.70;1.17;;;;;;;;;;4963323;29;20402;-79
2022/01/09 03:46:16;;;;;;;1.80;1.30;;;;;;;;;;4964863;29;20406;-80
2022/01/09 03:48:42;;;;;;;1.70;1.00;;;;;;;;;;4966421;29;20410;-80
2022/01/09 03:51:10;;;;;;;1.90;1.10;;;;;;;;;;4965313;29;20807;-80
2022/01/09 03:53:36;;;;;;;2.27;1.40;;;;;;;;;;4962425;29;20418;-80
2022/01/09 03:56:03;;;;;;;1.40;1.00;;;;;;;;;;4963591;29;20418;-80
2022/01/09 03:58:29;;;;;;;1.40;0.90;;;;;;;;;;4963641;29;20422;-80
2022/01/09 04:00:55;;;;;;;1.53;1.10;;;;;;;;;;4963656;29;20581;-81
2022/01/09 04:03:21;;;;;;;2.00;1.50;;;;;;;;;;4970073;29;20403;-80
2022/01/09 04:05:47;;;;;;;1.60;1.07;;;;;;;;;;4969531;28;20473;-80
2022/01/09 04:08:13;;;;;;;1.67;1.00;;;;;;;;;;4971229;29;20415;-79
2022/01/09 04:10:41;;;;;;;2.70;1.30;;;;;;;;;;4972902;29;20414;-80
2022/01/09 04:13:08;;;;;;;1.90;1.00;;;;;;;;;;4975682;28;20434;-79
2022/01/09 04:15:34;;;;;;;1.93;1.20;;;;;;;;;;4974979;29;20442;-80
2022/01/09 04:18:02;;;;;;;1.70;1.10;;;;;;;;;;4975633;29;20780;-80
2022/01/09 04:20:29;;;;;;;1.50;1.00;;;;;;;;;;4975394;28;20442;-79
2022/01/09 04:22:56;;;;;;;1.70;1.20;;;;;;;;;;4968998;29;20441;-79
2022/01/09 04:25:22;;;;;;;2.40;1.13;;;;;;;;;;4966336;28;20430;-80
2022/01/09 04:27:49;;;;;;;1.43;1.20;;;;;;;;;;4982569;28;20755;-80
2022/01/09 04:30:15;;;;;;;3.00;1.47;;;;;;;;;;4982430;28;20398;-79
2022/01/09 04:32:41;;;;;;;1.93;1.13;;;;;;;;;;4981552;28;20985;-80
2022/01/09 04:35:08;;;;;;;1.43;0.90;;;;;;;;;;4981921;28;20469;-80
2022/01/09 04:37:35;;;;;;;1.60;1.07;;;;;;;;;;4980717;28;20501;-80
2022/01/09 04:40:02;;;;;;;1.40;1.00;;;;;;;;;;4980645;28;20409;-80
2022/01/09 04:42:37;;;;;;;1.50;0.90;;;;;;;;;;4981637;28;20440;-80
2022/01/09 04:45:03;;;;;;;2.03;1.10;;;;;;;;;;4981878;28;20770;-79
2022/01/09 04:47:29;;;;;;;1.60;0.97;;;;;;;;;;4982171;28;20503;-79
2022/01/09 04:49:55;;;;;;;1.67;1.10;;;;;;;;;;4982109;28;20409;-80
2022/01/09 04:52:26;;;;;;;1.67;1.00;;;;;;;;;;4979880;28;20457;-80
2022/01/09 04:54:52;;;;;;;1.90;1.20;;;;;;;;;;4981837;28;20753;-79
2022/01/09 04:57:18;;;;;;;1.90;1.23;;;;;;;;;;4981838;28;20401;-80
2022/01/09 04:59:44;;;;;;;1.90;1.30;;;;;;;;;;4979900;28;20779;-80
2022/01/09 05:02:10;;;;;;;2.27;1.60;;;;;;;;;;5000824;23;20496;-68
2022/01/09 05:04:36;;;;;;;1.80;1.40;;;;;;;;;;4976367;28;20777;-68
2022/01/09 05:07:02;;;;;;;4.80;1.20;;;;;;;;;;4976263;28;20929;-68
2022/01/09 05:09:28;;;;;;;1.73;1.20;;;;;;;;;;4976258;28;20393;-68
2022/01/09 05:11:54;;;;;;;1.90;1.30;;;;;;;;;;4958563;28;20429;-68
2022/01/09 05:14:20;;;;;;;2.33;1.10;;;;;;;;;;4956582;28;20501;-68
2022/01/09 05:16:47;;;;;;;1.33;0.90;;;;;;;;;;4973981;23;21004;-76
2022/01/09 05:19:22;;;;;;;2.00;1.00;;;;;;;;;;4975796;28;20469;-76
2022/01/09 05:21:49;;;;;;;1.50;0.90;;;;;;;;;;4975694;28;20461;-76
2022/01/09 05:24:16;;;;;;;1.40;0.80;;;;;;;;;;4974446;28;20422;-76
2022/01/09 05:26:42;;;;;;;1.77;0.90;;;;;;;;;;4975655;28;20398;-76
2022/01/09 05:29:08;;;;;;;1.30;0.80;;;;;;;;;;4975707;28;20397;-76
2022/01/09 05:31:34;;;;;;;1.70;1.03;;;;;;;;;;4975555;28;20496;-76
2022/01/09 05:34:00;;;;;;;1.37;0.90;;;;;;;;;;4975352;28;20449;-76
2022/01/09 05:36:26;;;;;;;1.30;0.83;;;;;;;;;;4975510;28;20492;-76
2022/01/09 05:38:52;;;;;;;1.30;0.80;;;;;;;;;;4973978;28;20414;-76
2022/01/09 05:41:18;;;;;;;1.70;0.83;;;;;;;;;;4973687;28;20452;-76
2022/01/09 05:43:44;;;;;;;1.30;0.90;;;;;;;;;;4975148;28;20445;-76
2022/01/09 05:46:11;;;;;;;1.30;0.80;;;;;;;;;;4974529;28;20440;-76
2022/01/09 05:48:37;;;;;;;1.47;0.80;;;;;;;;;;4975048;28;20508;-76
2022/01/09 05:51:03;;;;;;;1.40;0.90;;;;;;;;;;4975130;28;20497;-76
2022/01/09 05:53:29;;;;;;;1.33;0.90;;;;;;;;;;4975118;28;20806;-76
2022/01/09 05:55:55;;;;;;;1.60;0.80;;;;;;;;;;4975018;28;20453;-76
2022/01/09 05:58:21;;;;;;;1.40;0.90;;;;;;;;;;4975069;28;20465;-76
2022/01/09 06:00:47;;;;;;;1.30;0.80;;;;;;;;;;4974740;28;20454;-76
2022/01/09 06:03:14;;;;;;;1.50;0.70;;;;;;;;;;4974742;28;20457;-76
2022/01/09 06:05:40;;;;;;;1.40;0.90;;;;;;;;;;4974951;28;20430;-76
2022/01/09 06:08:06;;;;;;;1.50;0.97;;;;;;;;;;4974736;28;20402;-76
2022/01/09 06:10:32;;;;;;;1.30;0.90;;;;;;;;;;4974626;28;20456;-76
2022/01/09 06:12:58;;;;;;;1.40;0.90;;;;;;;;;;4974858;28;20817;-76
2022/01/09 06:15:24;;;;;;;1.40;0.80;;;;;;;;;;4974828;28;20765;-76
2022/01/09 06:17:50;;;;;;;1.33;0.80;;;;;;;;;;4974407;28;20425;-76
2022/01/09 06:20:16;;;;;;;1.30;0.90;;;;;;;;;;4974422;28;21020;-77
2022/01/09 06:22:43;;;;;;;1.77;0.80;;;;;;;;;;4974392;28;20516;-76
2022/01/09 06:25:10;;;;;;;1.50;0.73;;;;;;;;;;4974723;28;20409;-76
2022/01/09 06:27:36;;;;;;;1.30;0.87;;;;;;;;;;4974435;28;20409;-76
2022/01/09 06:30:03;;;;;;;3.30;0.80;;;;;;;;;;4974530;28;20887;-76
2022/01/09 06:32:31;;;;;;;1.37;0.70;;;;;;;;;;4974234;28;20524;-76
2022/01/09 06:34:57;;;;;;;1.30;0.80;;;;;;;;;;4974794;28;20409;-76
2022/01/09 06:37:23;;;;;;;1.20;0.80;;;;;;;;;;4974963;28;20413;-76
2022/01/09 06:39:49;;;;;;;1.20;0.70;;;;;;;;;;4974522;28;20409;-76
2022/01/09 06:42:15;;;;;;;1.23;0.73;;;;;;;;;;4974230;28;20499;-76
2022/01/09 06:44:41;;;;;;;1.20;0.80;;;;;;;;;;4974432;28;20402;-76
2022/01/09 06:47:08;;;;;;;1.20;0.73;;;;;;;;;;4974239;28;20398;-76
2022/01/09 06:49:34;;;;;;;1.20;0.70;;;;;;;;;;4974426;28;20409;-75
2022/01/09 06:52:01;;;;;;;1.20;0.70;;;;;;;;;;4974118;28;20465;-76
2022/01/09 06:54:28;;;;;;;1.30;0.80;;;;;;;;;;4974167;28;20425;-76
2022/01/09 06:56:54;;;;;;;1.20;0.80;;;;;;;;;;4974682;28;20433;-76
2022/01/09 06:59:20;;;;;;;1.87;1.00;;;;;;;;;;4978145;28;20929;-76
2022/01/09 07:01:46;;;;;;;1.20;0.70;;;;;;;;;;4978252;28;20539;-76
2022/01/09 07:04:12;;;;;;;1.20;0.73;;;;;;;;;;4978136;28;20397;-77
2022/01/09 07:06:38;;;;;;;1.20;0.70;;;;;;;;;;4978277;28;20397;-76
2022/01/09 07:09:04;;;;;;;1.20;0.77;;;;;;;;;;4978250;28;20905;-76
2022/01/09 07:11:30;;;;;;;1.30;0.80;;;;;;;;;;4977893;28;20913;-76
2022/01/09 07:13:56;;;;;;;1.20;0.80;;;;;;;;;;4978213;28;20417;-76
2022/01/09 07:16:22;;;;;;;1.70;0.80;;;;;;;;;;4977941;28;20429;-76
2022/01/09 07:18:49;;;;;;;1.67;1.10;;;;;;;;;;4977916;28;20500;-76
2022/01/09 07:21:15;;;;;;;1.37;0.70;;;;;;;;;;4977855;28;20982;-76
2022/01/09 07:23:41;;;;;;;1.30;0.70;;;;;;;;;;4977829;28;20397;-76
2022/01/09 07:26:07;;;;;;;1.20;0.70;;;;;;;;;;4977710;28;20945;-76
2022/01/09 07:28:33;;;;;;;1.70;1.03;;;;;;;;;;4977534;28;20436;-76
2022/01/09 07:30:59;;;;;;;2.13;0.90;;;;;;;;;;4977588;28;20401;-76
2022/01/09 07:33:25;;;;;;;1.30;0.83;;;;;;;;;;4977423;28;20429;-76
2022/01/09 07:35:51;;;;;;;1.20;0.70;;;;;;;;;;4977437;28;20412;-76
2022/01/09 07:38:17;;;;;;;1.30;0.80;;;;;;;;;;4977523;28;20782;-76
2022/01/09 07:40:43;;;;;;;1.20;0.80;;;;;;;;;;4977382;28;20444;-76
2022/01/09 07:43:09;;;;;;;1.40;0.90;;;;;;;;;;4977598;28;20433;-76
2022/01/09 07:45:35;;;;;;;1.20;0.80;;;;;;;;;;4976200;28;20496;-75
2022/01/09 07:48:02;;;;;;;1.40;0.80;;;;;;;;;;4977688;28;20799;-76
2022/01/09 07:50:28;;;;;;;1.20;0.70;;;;;;;;;;4977236;28;20448;-76
2022/01/09 07:52:55;;;;;;;1.20;0.80;;;;;;;;;;4977141;28;20848;-74
2022/01/09 07:55:22;;;;;;;1.30;0.80;;;;;;;;;;4977297;28;20449;-74
2022/01/09 07:57:48;;;;;;;2.17;1.30;;;;;;;;;;4977014;28;20906;-75
2022/01/09 08:00:15;;;;;;;1.40;0.80;;;;;;;;;;4975829;28;20467;-75
2022/01/09 08:02:42;;;;;;;1.80;0.90;;;;;;;;;;4976914;28;20422;-75
2022/01/09 08:05:08;;;;;;;1.40;0.90;;;;;;;;;;4976887;28;20421;-75
2022/01/09 08:07:34;;;;;;;1.50;0.90;;;;;;;;;;4976715;28;20514;-75
2022/01/09 08:10:00;;;;;;;1.50;0.90;;;;;;;;;;4977419;28;20397;-75
2022/01/09 08:12:26;;;;;;;2.80;0.93;;;;;;;;;;4977812;28;20501;-75
2022/01/09 08:14:52;;;;;;;1.20;0.70;;;;;;;;;;4977350;28;20397;-75
2022/01/09 08:17:19;;;;;;;1.30;0.80;;;;;;;;;;4977045;28;20418;-75
2022/01/09 08:19:45;;;;;;;1.30;0.90;;;;;;;;;;4977155;28;20420;-74
2022/01/09 08:22:11;;;;;;;1.40;0.90;;;;;;;;;;4977155;28;20465;-74
2022/01/09 08:24:38;;;;;;;1.20;0.83;;;;;;;;;;4977049;28;20485;-75
2022/01/09 08:27:05;;;;;;;1.50;0.90;;;;;;;;;;4976867;28;20453;-75
2022/01/09 08:29:31;;;;;;;1.40;0.97;;;;;;;;;;4976814;28;20398;-76
2022/01/09 08:31:57;;;;;;;1.50;0.87;;;;;;;;;;4976693;28;20434;-76
2022/01/09 08:34:23;;;;;;;1.50;1.00;;;;;;;;;;4976665;28;20393;-76
2022/01/09 08:36:49;;;;;;;1.20;0.70;;;;;;;;;;4976418;28;20412;-76
2022/01/09 08:39:15;;;;;;;1.63;0.93;;;;;;;;;;4976557;28;20401;-76
2022/01/09 08:41:42;;;;;;;1.20;0.70;;;;;;;;;;4976576;28;20463;-76
2022/01/09 08:44:08;;;;;;;1.70;0.80;;;;;;;;;;4976662;28;20429;-76
2022/01/09 08:46:35;;;;;;;1.33;0.90;;;;;;;;;;4976462;28;20398;-76
2022/01/09 08:49:01;;;;;;;1.40;0.80;;;;;;;;;;4976353;28;20401;-76
2022/01/09 08:51:28;;;;;;;1.20;0.70;;;;;;;;;;4976093;28;20406;-76
2022/01/09 08:53:54;;;;;;;2.03;0.90;;;;;;;;;;4975210;28;20921;-76
2022/01/09 08:56:22;;;;;;;1.20;0.80;;;;;;;;;;4973878;28;20420;-75
2022/01/09 08:58:48;;;;;;;1.50;1.10;;;;;;;;;;4975310;28;20414;-76
2022/01/09 09:01:14;;;;;;;1.50;1.00;;;;;;;;;;4974112;28;20500;-76
2022/01/09 09:03:41;;;;;;;1.40;0.87;;;;;;;;;;4975502;28;20397;-77
2022/01/09 09:06:11;;;;;;;1.30;0.90;;;;;;;;;;4959343;28;20539;-76
2022/01/09 09:08:37;;;;;;;1.70;1.03;;;;;;;;;;4976096;28;20485;-76
2022/01/09 09:11:04;;;;;;;1.40;1.10;;;;;;;;;;4973664;28;20412;-77
2022/01/09 09:13:30;;;;;;;4.20;1.10;;;;;;;;;;4974460;28;20771;-76
2022/01/09 09:15:56;;;;;;;1.30;1.10;;;;;;;;;;4975695;28;20429;-76
2022/01/09 09:18:22;;;;;;;1.40;0.80;;;;;;;;;;4975456;28;20774;-76
2022/01/09 09:20:48;;;;;;;1.40;0.90;;;;;;;;;;4974462;28;21047;-76
2022/01/09 09:23:14;;;;;;;1.40;1.00;;;;;;;;;;4975153;28;20488;-77
2022/01/09 09:25:40;;;;;;;1.40;0.83;;;;;;;;;;4975796;28;20413;-76
2022/01/09 09:28:06;;;;;;;1.43;0.90;;;;;;;;;;4969428;28;20829;-76
2022/01/09 09:30:32;;;;;;;1.40;0.93;;;;;;;;;;4970720;28;20409;-76
2022/01/09 09:32:58;;;;;;;1.50;1.00;;;;;;;;;;4973984;28;20488;-76
2022/01/09 09:35:24;;;;;;;1.80;1.10;;;;;;;;;;4958209;28;20433;-77
2022/01/09 09:37:50;;;;;;;2.13;1.10;;;;;;;;;;4974920;28;20433;-76
2022/01/09 09:40:16;;;;;;;3.17;1.30;;;;;;;;;;4977256;28;20540;-76
2022/01/09 09:42:43;;;;;;;1.30;0.77;;;;;;;;;;4977610;28;20425;-76
2022/01/09 09:45:10;;;;;;;1.50;1.00;;;;;;;;;;4969023;28;20823;-76
2022/01/09 09:47:36;;;;;;;1.90;0.80;;;;;;;;;;4962415;28;20847;-77
2022/01/09 09:50:04;;;;;;;1.60;1.20;;;;;;;;;;4958895;29;20445;-76
2022/01/09 09:52:30;;;;;;;1.67;1.00;;;;;;;;;;4962084;28;20443;-77
2022/01/09 09:54:57;;;;;;;1.50;1.00;;;;;;;;;;4957565;29;20771;-76
2022/01/09 09:57:23;;;;;;;1.50;1.00;;;;;;;;;;4957641;29;20395;-76
2022/01/09 09:59:49;;;;;;;1.70;1.10;;;;;;;;;;4957589;29;20911;-76
2022/01/09 10:02:17;;;;;;;2.00;0.90;;;;;;;;;;4986596;23;20458;-76
2022/01/09 10:04:58;;;;;;;1.93;1.27;;;;;;;;;;4974401;28;20728;-76
2022/01/09 10:07:24;;;;;;;1.40;1.17;;;;;;;;;;4970392;28;20472;-76
2022/01/09 10:09:54;;;;;;;2.53;1.20;;;;;;;;;;4970944;28;20915;-76
2022/01/09 10:12:28;;;;;;;3.20;1.20;;;;;;;;;;4973849;28;20190;-77
2022/01/09 10:14:58;;;;;;;2.10;0.90;;;;;;;;;;4973568;28;20418;-76
2022/01/09 10:17:26;;;;;;;2.80;0.90;;;;;;;;;;4973297;28;20418;-76
2022/01/09 10:19:56;;;;;;;3.53;1.10;;;;;;;;;;4975296;28;20402;-77
2022/01/09 10:22:22;;;;;;;1.40;0.90;;;;;;;;;;4974248;28;20446;-76
2022/01/09 10:24:48;;;;;;;3.30;1.03;;;;;;;;;;4975035;28;20393;-76
2022/01/09 10:27:28;;;;;;;2.80;1.20;;;;;;;;;;4974337;28;20500;-76
2022/01/09 10:29:54;;;;;;;3.00;1.63;;;;;;;;;;4974241;28;20409;-76
2022/01/09 10:32:20;;;;;;;1.70;0.93;;;;;;;;;;4973765;28;20432;-76
2022/01/09 10:35:05;;;;;;;2.07;0.93;;;;;;;;;;4974908;28;20420;-76
2022/01/09 10:37:31;;;;;;;1.67;1.20;;;;;;;;;;4972434;28;21121;-76
2022/01/09 10:40:00;;;;;;;2.33;1.20;;;;;;;;;;4974133;28;20804;-76
2022/01/09 10:42:27;;;;;;;1.60;0.93;;;;;;;;;;4973436;28;20459;-76
2022/01/09 10:44:53;;;;;;;3.90;1.30;;;;;;;;;;4974314;28;20417;-76
2022/01/09 10:47:19;;;;;;;1.80;1.00;;;;;;;;;;4974364;28;20456;-76
2022/01/09 10:49:48;;;;;;;1.63;1.00;;;;;;;;;;4974432;28;20426;-76
2022/01/09 10:52:17;;;;;;;1.63;0.95;;;;;;;;;;4974609;28;20807;-76
2022/01/09 10:54:46;;;;;;;2.50;1.10;;;;;;;;;;4973804;28;20608;-76
2022/01/09 10:57:12;;;;;;;6.73;1.50;;;;;;;;;;4974308;28;20426;-77
2022/01/09 10:59:39;;;;;;;2.40;1.00;;;;;;;;;;4972334;28;20954;-78
2022/01/09 11:02:05;;;;;;;3.20;1.57;;;;;;;;;;4997198;23;20198;-66
2022/01/09 11:04:31;;;;;;;1.73;1.20;;;;;;;;;;4977279;28;20906;-66
2022/01/09 11:06:57;;;;;;;2.00;0.90;;;;;;;;;;4976922;28;20787;-66
2022/01/09 11:09:26;;;;;;;2.53;1.40;;;;;;;;;;4974304;28;20261;-67
2022/01/09 11:11:53;;;;;;;2.63;1.33;;;;;;;;;;4976961;28;20444;-68
2022/01/09 11:14:21;;;;;;;1.83;1.10;;;;;;;;;;4976077;28;20413;-65
2022/01/09 11:16:56;;;;;;;1.80;1.10;;;;;;;;;;4974844;28;20402;-66
2022/01/09 11:19:23;;;;;;;2.63;1.23;;;;;;;;;;4974545;28;20450;-65
2022/01/09 11:21:52;;;;;;;1.40;1.10;;;;;;;;;;4972947;28;20819;-65
2022/01/09 11:24:24;;;;;;;2.37;1.33;;;;;;;;;;4974175;28;20421;-66
2022/01/09 11:26:51;;;;;;;2.83;1.27;;;;;;;;;;4973330;28;20506;-54
2022/01/09 11:29:21;;;;;;;2.20;1.20;;;;;;;;;;4974165;28;20170;-56
2022/01/09 11:32:06;;;;;;;2.43;1.10;;;;;;;;;;4976801;28;20430;-66
2022/01/09 11:34:52;;;;;;;5.30;1.20;;;;;;;;;;4972498;28;20416;-55
2022/01/09 11:37:23;;;;;;;1.80;1.07;;;;;;;;;;4968890;28;20652;-53
2022/01/09 11:39:49;;;;;;;1.80;1.20;;;;;;;;;;4974940;28;20413;-62
2022/01/09 11:42:16;;;;;;;4.17;1.50;;;;;;;;;;4974066;28;20516;-60
2022/01/09 11:44:49;;;;;;;3.10;1.70;;;;;;;;;;4977312;28;20820;-66
2022/01/09 11:47:16;;;;;;;3.30;1.50;;;;;;;;;;4977418;28;20504;-69
2022/01/09 11:49:56;;;;;;;3.30;1.40;;;;;;;;;;4991798;28;20425;-69
2022/01/09 11:52:24;;;;;;;3.10;1.73;;;;;;;;;;4976455;28;20438;-65
2022/01/09 11:54:51;;;;;;;3.87;1.70;;;;;;;;;;4971378;28;20463;-67
2022/01/09 11:57:36;;;;;;;8.63;1.60;;;;;;;;;;4961036;28;20422;-68
2022/01/09 12:00:04;;;;;;;8.23;1.47;;;;;;;;;;4974813;28;20488;-59
2022/01/09 12:02:31;;;;;;;2.90;1.43;;;;;;;;;;4976888;28;20543;-58
2022/01/09 12:05:02;;;;;;;2.43;1.20;;;;;;;;;;4977254;28;20500;-59
2022/01/09 12:07:34;;;;;;;3.90;1.50;;;;;;;;;;4975794;28;20436;-67
2022/01/09 12:10:01;;;;;;;2.87;1.37;;;;;;;;;;4969023;28;20516;-69
2022/01/09 12:12:30;;;;;;;2.73;1.10;;;;;;;;;;4977704;28;20417;-66
2022/01/09 12:14:58;;;;;;;2.47;1.50;;;;;;;;;;4977045;28;20496;-69
2022/01/09 12:17:27;;;;;;;2.10;1.40;;;;;;;;;;4972785;28;20504;-68
2022/01/09 12:20:08;;;;;;;8.00;1.90;;;;;;;;;;4961759;29;20495;-65
2022/01/09 12:22:40;;;;;;;2.73;1.30;;;;;;;;;;4967266;28;20563;-67
2022/01/09 12:25:07;;;;;;;2.90;1.57;;;;;;;;;;4977099;28;20432;-69
2022/01/09 12:27:38;;;;;;;3.77;1.40;;;;;;;;;;4958064;28;20424;-67
2022/01/09 12:30:04;;;;;;;5.90;1.90;;;;;;;;;;4971290;28;20425;-65
2022/01/09 12:32:41;;;;;;;3.73;1.47;;;;;;;;;;4991727;28;20438;-68
2022/01/09 12:35:17;;;;;;;4.60;1.80;;;;;;;;;;4976796;28;20405;-67
2022/01/09 12:37:53;;;;;;;6.07;1.70;;;;;;;;;;4977325;28;20959;-68
2022/01/09 12:40:20;;;;;;;2.83;1.77;;;;;;;;;;4973339;28;20755;-63
2022/01/09 12:42:47;;;;;;;3.00;1.80;;;;;;;;;;4975902;28;20448;-63
2022/01/09 12:45:23;;;;;;;3.10;1.40;;;;;;;;;;4974158;28;20504;-63
2022/01/09 12:47:50;;;;;;;6.60;1.50;;;;;;;;;;4977109;28;20391;-63
2022/01/09 12:50:16;;;;;;;8.27;1.70;;;;;;;;;;4976122;28;20456;-63
2022/01/09 12:52:42;;;;;;;3.40;1.33;;;;;;;;;;4957448;29;20419;-63
2022/01/09 12:55:10;;;;;;;4.43;1.50;;;;;;;;;;4957323;28;20765;-63
2022/01/09 12:57:52;;;;;;;2.73;1.20;;;;;;;;;;4964494;28;22221;-63
2022/01/09 13:00:26;;;;;;;3.90;1.40;;;;;;;;;;4972213;28;20832;-60
2022/01/09 13:02:53;;;;;;;7.53;1.70;;;;;;;;;;4975882;28;20459;-63
2022/01/09 13:05:26;;;;;;;2.07;1.30;;;;;;;;;;4976807;28;20827;-60
2022/01/09 13:07:59;;;;;;;3.60;1.30;;;;;;;;;;4976581;28;20409;-65
2022/01/09 13:10:29;;;;;;;2.67;1.40;;;;;;;;;;4976765;28;20410;-67
2022/01/09 13:13:03;;;;;;;3.43;1.57;;;;;;;;;;4975626;28;20445;-61
2022/01/09 13:15:34;;;;;;;5.77;1.47;;;;;;;;;;4976260;28;20424;-61
2022/01/09 13:18:00;;;;;;;6.50;1.80;;;;;;;;;;4975965;28;20898;-65
2022/01/09 13:20:26;;;;;;;3.00;1.30;;;;;;;;;;4976333;28;20460;-66
2022/01/09 13:23:03;;;;;;;2.13;1.40;;;;;;;;;;4973877;28;20444;-66
2022/01/09 13:25:29;;;;;;;4.73;1.47;;;;;;;;;;4975662;28;20413;-66
2022/01/09 13:27:55;;;;;;;3.47;1.30;;;;;;;;;;4975465;28;20540;-67
2022/01/09 13:30:21;;;;;;;4.13;1.97;;;;;;;;;;4975754;28;20409;-66
2022/01/09 13:32:47;;;;;;;3.40;1.50;;;;;;;;;;4975486;28;20778;-66
2022/01/09 13:35:13;;;;;;;2.90;1.50;;;;;;;;;;4976045;28;20496;-67
2022/01/09 13:37:40;;;;;;;3.08;1.58;;;;;;;;;;4976851;28;20768;-62
2022/01/09 13:40:07;;;;;;;4.47;1.50;;;;;;;;;;4977118;28;20197;-72
2022/01/09 13:42:33;;;;;;;9.80;1.70;;;;;;;;;;4976826;28;20460;-69
2022/01/09 13:45:21;;;;;;;5.33;1.50;;;;;;;;;;4975391;28;20417;-69
2022/01/09 13:47:51;;;;;;;3.67;1.40;;;;;;;;;;4977352;28;20410;-68
2022/01/09 13:50:28;;;;;;;4.57;1.80;;;;;;;;;;4978302;28;20412;-68
2022/01/09 13:52:54;;;;;;;9.30;2.13;;;;;;;;;;4975809;28;20451;-67
2022/01/09 13:55:26;;;;;;;6.57;1.70;;;;;;;;;;4975254;28;20408;-67
2022/01/09 13:57:54;;;;;;;3.33;1.60;;;;;;;;;;4956296;28;20434;-68
2022/01/09 14:00:24;;;;;;;6.17;1.50;;;;;;;;;;4955831;29;20399;-66
2022/01/09 14:02:50;;;;;;;5.20;1.63;;;;;;;;;;4955678;28;20475;-66
2022/01/09 14:05:20;;;;;;;3.30;1.70;;;;;;;;;;4956194;28;20461;-68
2022/01/09 14:07:48;;;;;;;7.73;1.70;;;;;;;;;;4974617;28;20512;-68
2022/01/09 14:10:15;;;;;;;3.87;1.33;;;;;;;;;;4973546;28;20421;-68
2022/01/09 14:12:42;;;;;;;4.38;1.10;;;;;;;;;;4974597;28;20899;-65
2022/01/09 14:15:11;;;;;;;3.43;1.33;;;;;;;;;;4975541;28;20585;-64
2022/01/09 14:17:37;;;;;;;3.90;1.63;;;;;;;;;;4975146;28;20820;-66
2022/01/09 14:20:13;;;;;;;5.40;1.97;;;;;;;;;;4974463;28;20437;-63
2022/01/09 14:22:41;;;;;;;6.60;2.07;;;;;;;;;;4975125;28;20507;-64
2022/01/09 14:25:15;;;;;;;5.63;1.50;;;;;;;;;;4974745;28;20560;-63
2022/01/09 14:27:44;;;;;;;9.53;2.10;;;;;;;;;;4974093;28;20964;-62
2022/01/09 14:30:23;;;;;;;2.27;1.20;;;;;;;;;;4971979;28;20503;-65
2022/01/09 14:32:51;;;;;;;2.43;1.43;;;;;;;;;;4971188;28;20524;-63
2022/01/09 14:35:30;;;;;;;3.17;1.90;;;;;;;;;;4975315;28;20958;-63
2022/01/09 14:38:00;;;;;;;4.60;1.73;;;;;;;;;;4960800;28;20764;-66
2022/01/09 14:40:27;;;;;;;3.00;1.90;;;;;;;;;;4955251;29;20449;-68
2022/01/09 14:42:53;;;;;;;3.40;1.10;;;;;;;;;;4962706;28;20426;-54
2022/01/09 14:45:20;;;;;;;4.73;1.70;;;;;;;;;;4973814;28;20420;-56
2022/01/09 14:47:48;;;;;;;4.27;1.60;;;;;;;;;;4973737;28;20441;-59